< < Back
Terminal Aerodrome Forecast


Current Version              Previous Versions:   1  2  3  4  5  6  7  8  9  

Terminal Aerodrome Forecast

903
FTUS42 KMLB 300400 AAA
TAFDAB
TAF AMD
KDAB 300439Z 3005/3024 22004KT P6SM FEW003 BKN020 OVC040
     FM301200 27006KT P6SM VCSH SCT010 BKN020
     FM301600 28007KT P6SM VCSH SCT010 OVC035
      TEMPO 3016/3020 3SM SHRA BKN025
     FM302000 01008KT P6SM SCT020 OVC040
      TEMPO 3020/3023 2SM SHRA BKN020=

Latest METAR

479
SAUS80 KWBC 302200 RRA
MTRDAB
METAR KDAB 302153Z 35009G15KT 10SM BKN014 BKN021 OVC080 26/23 A2983 RMK
AO2 SLP100 CB NE S MOV E T02560228


USA.gov is the U.S. government's official web portal to all federal, state and local government web resources and services.